Time;durP1;ratioP1;P1;durP2;ratioP2;P2;SDS_P1;SDS_P2;PMS_P1;PMS_P2;Temp;Humidity;BMP_temperature;BMP_pressure;BME280_temperature;BME280_humidity;BME280_pressure;Samples;Min_cycle;Max_cycle;Signal;HPM_P1;HPM_P2
2023/06/24 00:01:28;;;;;;;5.53;4.27;;;19.50;99.90;;;;;;4985346;28;20204;-73
2023/06/24 00:03:54;;;;;;;5.00;4.13;;;19.50;99.90;;;;;;4984447;28;20201;-73
2023/06/24 00:06:20;;;;;;;5.10;4.60;;;19.50;99.90;;;;;;4984795;28;20680;-74
2023/06/24 00:08:46;;;;;;;4.77;4.20;;;19.50;99.90;;;;;;4987811;28;20168;-71
2023/06/24 00:11:15;;;;;;;5.60;4.30;;;19.40;99.90;;;;;;4987966;28;20506;-72
2023/06/24 00:13:42;;;;;;;5.00;4.50;;;19.40;99.90;;;;;;4988046;28;20416;-73
2023/06/24 00:16:08;;;;;;;4.50;4.10;;;19.30;99.90;;;;;;4986721;28;20440;-71
2023/06/24 00:18:34;;;;;;;4.37;3.97;;;19.30;99.90;;;;;;4989480;28;20432;-74
2023/06/24 00:21:01;;;;;;;3.83;3.50;;;19.30;99.90;;;;;;4990493;28;20503;-72
2023/06/24 00:23:28;;;;;;;3.90;3.47;;;19.20;99.90;;;;;;4986012;28;20884;-72
2023/06/24 00:25:54;;;;;;;4.30;3.90;;;19.20;99.90;;;;;;4969581;28;20479;-73
2023/06/24 00:28:20;;;;;;;3.93;3.50;;;19.20;99.90;;;;;;4984323;28;20518;-71
2023/06/24 00:30:47;;;;;;;3.90;3.50;;;19.20;99.90;;;;;;4983237;28;20463;-74
2023/06/24 00:33:13;;;;;;;3.50;2.70;;;19.10;99.90;;;;;;4983941;28;20404;-71
2023/06/24 00:35:42;;;;;;;5.03;3.90;;;19.10;99.90;;;;;;4985021;28;20482;-72
2023/06/24 00:38:08;;;;;;;5.83;4.60;;;19.00;99.90;;;;;;4983481;28;20193;-72
2023/06/24 00:40:34;;;;;;;4.83;4.33;;;19.00;99.90;;;;;;4983205;28;20450;-73
2023/06/24 00:43:01;;;;;;;7.23;6.53;;;19.00;99.90;;;;;;4982412;28;20196;-72
2023/06/24 00:45:30;;;;;;;6.70;6.00;;;19.00;99.90;;;;;;4982251;28;20538;-71
2023/06/24 00:47:58;;;;;;;10.23;8.03;;;19.00;99.90;;;;;;4983026;28;20420;-74
2023/06/24 00:50:25;;;;;;;7.13;6.43;;;19.00;99.90;;;;;;4982648;28;20729;-71
2023/06/24 00:52:53;;;;;;;6.83;6.13;;;19.00;99.90;;;;;;4982635;28;20404;-70
2023/06/24 00:55:20;;;;;;;8.60;7.70;;;19.00;99.90;;;;;;4982105;28;20505;-70
2023/06/24 00:57:51;;;;;;;9.53;8.03;;;19.00;99.90;;;;;;4985222;28;20622;-72
2023/06/24 01:00:18;;;;;;;9.00;7.60;;;19.00;99.90;;;;;;4985500;28;20450;-72
2023/06/24 01:02:47;;;;;;;8.60;7.70;;;19.00;99.90;;;;;;4982331;28;20428;-72
2023/06/24 01:05:13;;;;;;;9.23;8.33;;;19.00;99.90;;;;;;4981399;28;20462;-72
2023/06/24 01:07:39;;;;;;;9.47;8.20;;;19.00;99.90;;;;;;4983227;28;20905;-71
2023/06/24 01:10:06;;;;;;;9.30;8.47;;;19.00;99.90;;;;;;4980761;28;20215;-71
2023/06/24 01:12:38;;;;;;;11.97;9.73;;;18.90;99.90;;;;;;4982452;28;20430;-71
2023/06/24 01:15:06;;;;;;;9.53;8.70;;;18.90;99.90;;;;;;4977291;28;20689;-71
2023/06/24 01:18:00;;;;;;;8.57;7.47;;;18.80;99.90;;;;;;4976843;28;20433;-71
2023/06/24 01:20:33;;;;;;;7.90;7.10;;;18.70;99.90;;;;;;4976511;28;20494;-72
2023/06/24 01:23:20;;;;;;;8.93;8.00;;;18.70;99.90;;;;;;4976282;28;20436;-71
2023/06/24 01:26:01;;;;;;;10.67;9.20;;;18.60;99.90;;;;;;4976917;28;20681;-71
2023/06/24 01:28:48;;;;;;;10.10;9.10;;;18.60;99.90;;;;;;4975370;28;20452;-71
2023/06/24 01:31:41;;;;;;;13.27;11.00;;;18.50;99.90;;;;;;4970936;28;20578;-70
2023/06/24 01:34:27;;;;;;;13.30;10.80;;;18.50;99.90;;;;;;4958165;28;20416;-72
2023/06/24 01:37:00;;;;;;;12.13;10.57;;;18.50;99.90;;;;;;4995230;28;20457;-71
2023/06/24 01:39:30;;;;;;;11.07;10.03;;;18.40;99.90;;;;;;4995497;28;20497;-71
2023/06/24 01:42:03;;;;;;;10.70;9.63;;;18.40;99.90;;;;;;4978450;28;20792;-72
2023/06/24 01:44:29;;;;;;;10.50;9.50;;;18.40;99.90;;;;;;4975998;28;20462;-71
2023/06/24 01:46:58;;;;;;;11.17;9.93;;;18.40;99.90;;;;;;4978972;28;20430;-70
2023/06/24 01:49:27;;;;;;;10.10;9.13;;;18.30;99.90;;;;;;4978605;28;20540;-72
2023/06/24 01:51:54;;;;;;;11.60;10.40;;;18.30;99.90;;;;;;4983184;28;20449;-73
2023/06/24 01:54:22;;;;;;;11.63;10.53;;;18.20;99.90;;;;;;4960126;28;20850;-71
2023/06/24 01:56:49;;;;;;;10.00;9.00;;;18.20;99.90;;;;;;4963776;28;20571;-71
2023/06/24 01:59:18;;;;;;;10.73;9.63;;;18.10;99.90;;;;;;4977691;28;20516;-71
2023/06/24 02:01:45;;;;;;;8.10;7.13;;;18.10;99.90;;;;;;4965930;28;20420;-71
2023/06/24 02:04:12;;;;;;;10.57;9.50;;;18.10;99.90;;;;;;4996082;28;20531;-72
2023/06/24 02:06:40;;;;;;;13.63;11.63;;;18.00;99.90;;;;;;4978013;28;20411;-71
2023/06/24 02:09:06;;;;;;;11.80;10.10;;;18.00;99.90;;;;;;4975523;28;20494;-70
2023/06/24 02:11:35;;;;;;;11.47;10.27;;;18.00;99.90;;;;;;4957886;28;20868;-70
2023/06/24 02:14:04;;;;;;;12.67;9.60;;;18.00;99.90;;;;;;4974754;28;20423;-70
2023/06/24 02:16:32;;;;;;;11.40;10.30;;;17.90;99.90;;;;;;4980529;28;20501;-71
2023/06/24 02:18:58;;;;;;;12.87;11.00;;;17.90;99.90;;;;;;4977579;28;21099;-72
2023/06/24 02:21:26;;;;;;;11.90;10.80;;;17.90;99.90;;;;;;4962652;28;20439;-72
2023/06/24 02:23:53;;;;;;;12.53;11.30;;;17.80;99.90;;;;;;4976134;28;20611;-72
2023/06/24 02:26:19;;;;;;;10.77;9.77;;;17.80;99.90;;;;;;4989343;28;20877;-70
2023/06/24 02:28:46;;;;;;;9.30;8.47;;;17.80;99.90;;;;;;4975826;28;20412;-71
2023/06/24 02:31:12;;;;;;;10.10;9.10;;;17.70;99.90;;;;;;4976674;28;20504;-72
2023/06/24 02:33:39;;;;;;;17.53;10.27;;;17.70;99.90;;;;;;4992045;28;20507;-71
2023/06/24 02:36:04;;;;;;;9.90;9.00;;;17.70;99.90;;;;;;4981252;28;20532;-72
2023/06/24 02:38:30;;;;;;;11.77;10.40;;;17.60;99.90;;;;;;4974586;28;20443;-70
2023/06/24 02:40:56;;;;;;;11.03;9.90;;;17.60;99.90;;;;;;4975273;28;20201;-70
2023/06/24 02:43:22;;;;;;;10.07;9.10;;;17.60;99.90;;;;;;4975956;28;20194;-70
2023/06/24 02:45:48;;;;;;;11.47;8.63;;;17.50;99.90;;;;;;4975757;28;20445;-72
2023/06/24 02:48:15;;;;;;;10.13;9.13;;;17.50;99.90;;;;;;4974810;28;20206;-71
2023/06/24 02:50:44;;;;;;;9.43;8.53;;;17.50;99.90;;;;;;4975194;28;20475;-71
2023/06/24 02:53:14;;;;;;;8.87;7.97;;;17.50;99.90;;;;;;4974784;28;20416;-71
2023/06/24 02:55:42;;;;;;;10.40;9.30;;;17.50;99.90;;;;;;4974336;28;20646;-72
2023/06/24 02:58:09;;;;;;;9.20;8.40;;;17.40;99.90;;;;;;4975328;28;20426;-71
2023/06/24 03:01:00;;;;;;;9.27;8.00;;;17.40;99.90;;;;;;4973030;28;20697;-72
2023/06/24 03:03:36;;;;;;;8.10;7.30;;;17.40;99.90;;;;;;4973736;28;20453;-71
2023/06/24 03:06:05;;;;;;;7.73;7.03;;;17.40;99.90;;;;;;4973978;28;20500;-70
2023/06/24 03:08:31;;;;;;;8.97;8.10;;;17.30;99.90;;;;;;4956200;28;20485;-70
2023/06/24 03:10:58;;;;;;;8.93;8.03;;;17.30;99.90;;;;;;4970938;28;20212;-71
2023/06/24 03:13:26;;;;;;;9.33;8.43;;;17.30;99.90;;;;;;4974510;28;20429;-69
2023/06/24 03:16:21;;;;;;;9.97;8.80;;;17.30;99.90;;;;;;4973907;28;20428;-72
2023/06/24 03:18:57;;;;;;;9.27;8.37;;;17.30;99.90;;;;;;4972395;28;20431;-70
2023/06/24 03:21:28;;;;;;;9.43;8.53;;;17.30;99.90;;;;;;4974637;28;20697;-76
2023/06/24 03:23:55;;;;;;;9.60;8.20;;;17.20;99.90;;;;;;4974335;28;20270;-70
2023/06/24 03:26:20;;;;;;;7.63;6.87;;;17.20;99.90;;;;;;4974480;28;20879;-70
2023/06/24 03:28:46;;;;;;;8.50;7.70;;;17.20;99.90;;;;;;4973575;28;20459;-72
2023/06/24 03:31:15;;;;;;;8.43;7.40;;;17.20;99.90;;;;;;4973496;28;20176;-71
2023/06/24 03:33:45;;;;;;;8.37;7.47;;;17.20;99.90;;;;;;4977490;28;20473;-71
2023/06/24 03:36:12;;;;;;;8.47;7.37;;;17.20;99.90;;;;;;4977588;28;20297;-71
2023/06/24 03:38:38;;;;;;;9.07;8.17;;;17.20;99.90;;;;;;4977194;28;20697;-71
2023/06/24 03:41:05;;;;;;;8.60;7.70;;;17.20;99.90;;;;;;4978538;28;20847;-71
2023/06/24 03:43:32;;;;;;;7.20;6.50;;;17.20;99.90;;;;;;4977596;28;20508;-70
2023/06/24 03:46:00;;;;;;;10.03;8.20;;;17.30;99.90;;;;;;4978464;28;20432;-70
2023/06/24 03:48:26;;;;;;;7.80;7.10;;;17.30;99.90;;;;;;4977023;28;20947;-72
2023/06/24 03:50:52;;;;;;;7.40;6.70;;;17.30;99.90;;;;;;4978286;28;20880;-70
2023/06/24 03:53:17;;;;;;;7.50;6.70;;;17.30;99.90;;;;;;4978644;28;20409;-69
2023/06/24 03:55:43;;;;;;;8.10;7.40;;;17.40;99.90;;;;;;4982458;28;20211;-70
2023/06/24 03:58:09;;;;;;;9.60;8.70;;;17.40;99.90;;;;;;4983572;28;20275;-72
2023/06/24 04:00:36;;;;;;;10.00;9.00;;;17.40;99.90;;;;;;4980773;28;20211;-70
2023/06/24 04:03:01;;;;;;;10.67;9.57;;;17.50;99.90;;;;;;4978678;28;20172;-71
2023/06/24 04:05:27;;;;;;;9.50;8.00;;;17.50;99.90;;;;;;4978619;28;20463;-71
2023/06/24 04:07:53;;;;;;;7.63;6.93;;;17.50;99.90;;;;;;4978759;28;20186;-71
2023/06/24 04:10:19;;;;;;;13.60;8.17;;;17.50;99.90;;;;;;4977207;28;20205;-71
2023/06/24 04:12:47;;;;;;;8.30;7.40;;;17.60;99.90;;;;;;4979374;28;20423;-70
2023/06/24 04:15:13;;;;;;;8.97;8.13;;;17.60;99.90;;;;;;4977088;28;20190;-72
2023/06/24 04:17:39;;;;;;;9.27;8.40;;;17.60;99.90;;;;;;4977847;28;20480;-71
2023/06/24 04:20:08;;;;;;;10.20;9.00;;;17.70;99.90;;;;;;4962742;28;20216;-71
2023/06/24 04:22:38;;;;;;;9.70;8.40;;;17.70;99.90;;;;;;4962682;28;20520;-71
2023/06/24 04:25:08;;;;;;;9.30;8.47;;;17.70;99.90;;;;;;4978368;28;20492;-71
2023/06/24 04:27:35;;;;;;;7.30;6.50;;;17.80;99.90;;;;;;4978860;28;20416;-72
2023/06/24 04:30:02;;;;;;;8.73;8.00;;;17.80;99.90;;;;;;4975994;28;20479;-72
2023/06/24 04:32:30;;;;;;;8.83;7.97;;;17.80;99.90;;;;;;4977135;28;20413;-71
2023/06/24 04:34:57;;;;;;;8.43;7.67;;;17.90;99.90;;;;;;4977612;28;20712;-69
2023/06/24 04:37:23;;;;;;;9.37;8.40;;;17.90;99.90;;;;;;4978158;28;20183;-71
2023/06/24 04:39:49;;;;;;;9.77;8.80;;;18.00;99.90;;;;;;4976886;28;20465;-70
2023/06/24 04:42:15;;;;;;;9.30;8.27;;;18.00;99.90;;;;;;4978577;28;20498;-70
2023/06/24 04:44:40;;;;;;;8.07;7.37;;;18.10;99.90;;;;;;4976548;28;20215;-71
2023/06/24 04:47:06;;;;;;;8.17;7.03;;;18.30;99.90;;;;;;4978988;28;20192;-70
2023/06/24 04:49:31;;;;;;;8.50;7.70;;;18.70;99.90;;;;;;4977972;28;20197;-72
2023/06/24 04:52:00;;;;;;;7.27;6.67;;;19.10;99.90;;;;;;4979152;28;20185;-71
2023/06/24 04:54:26;;;;;;;9.37;8.37;;;19.60;99.90;;;;;;4977925;28;20532;-70
2023/06/24 04:56:55;;;;;;;8.80;8.00;;;20.10;99.90;;;;;;4978234;28;20400;-69
2023/06/24 04:59:23;;;;;;;7.07;6.43;;;20.80;99.90;;;;;;4977231;28;20502;-72
2023/06/24 05:01:48;;;;;;;7.00;6.40;;;20.80;99.90;;;;;;4977540;28;20515;-70
2023/06/24 05:04:14;;;;;;;8.17;7.37;;;21.20;99.90;;;;;;4978188;28;20547;-70
2023/06/24 05:06:39;;;;;;;8.33;7.13;;;21.50;99.90;;;;;;4978562;28;20196;-69
2023/06/24 05:09:05;;;;;;;8.40;7.50;;;21.80;99.90;;;;;;4977770;28;20206;-70
2023/06/24 05:11:30;;;;;;;11.93;9.93;;;21.90;99.90;;;;;;4977311;28;20211;-70
2023/06/24 05:13:57;;;;;;;8.53;7.63;;;22.20;99.40;;;;;;4977063;28;20196;-70
2023/06/24 05:16:23;;;;;;;8.80;7.80;;;22.50;97.70;;;;;;4977323;28;20196;-70
2023/06/24 05:18:49;;;;;;;9.00;8.10;;;22.80;94.90;;;;;;4976975;28;20432;-70
2023/06/24 05:21:15;;;;;;;8.83;7.70;;;23.00;99.90;;;;;;4977555;28;20520;-69
2023/06/24 05:23:40;;;;;;;8.40;7.70;;;23.30;99.80;;;;;;4978150;28;20210;-70
2023/06/24 05:26:06;;;;;;;7.90;7.13;;;23.50;86.90;;;;;;4977671;28;20438;-70
2023/06/24 05:28:31;;;;;;;7.70;6.47;;;23.80;98.60;;;;;;4976937;28;20275;-71
2023/06/24 05:30:57;;;;;;;7.57;6.80;;;24.10;95.20;;;;;;4975894;28;20216;-70
2023/06/24 05:33:23;;;;;;;8.27;7.47;;;24.30;88.30;;;;;;4977489;28;20193;-71
2023/06/24 05:35:49;;;;;;;5.97;5.47;;;24.30;74.90;;;;;;4987667;28;20219;-71
2023/06/24 05:38:15;;;;;;;7.37;6.30;;;24.40;73.10;;;;;;4979030;28;20596;-70
2023/06/24 05:40:40;;;;;;;10.50;8.20;;;24.50;72.20;;;;;;4976866;28;20761;-72
2023/06/24 05:43:06;;;;;;;9.90;7.97;;;24.60;70.20;;;;;;4976736;28;20576;-70
2023/06/24 05:45:31;;;;;;;8.73;7.07;;;24.60;69.00;;;;;;4974707;28;20213;-71
2023/06/24 05:47:57;;;;;;;9.50;8.57;;;24.80;68.40;;;;;;4984887;28;20183;-69
2023/06/24 05:50:22;;;;;;;7.57;6.77;;;24.80;66.50;;;;;;4990689;28;20212;-72
2023/06/24 05:52:48;;;;;;;7.87;7.10;;;24.90;65.90;;;;;;4980028;28;20571;-73
2023/06/24 05:55:13;;;;;;;7.03;6.23;;;25.00;65.30;;;;;;4986116;28;20208;-73
2023/06/24 05:57:40;;;;;;;7.80;6.63;;;25.10;65.80;;;;;;4984668;28;20188;-71
2023/06/24 06:00:06;;;;;;;7.23;6.63;;;25.40;72.20;;;;;;4975261;28;20720;-69
2023/06/24 06:02:37;;;;;;;9.07;7.50;;;25.60;62.60;;;;;;4977067;28;20419;-71
2023/06/24 06:05:03;;;;;;;7.93;7.23;;;25.90;60.90;;;;;;4987859;28;20874;-72
2023/06/24 06:07:29;;;;;;;10.77;7.67;;;26.20;59.20;;;;;;4996673;28;20198;-71
2023/06/24 06:09:55;;;;;;;6.97;6.37;;;26.30;58.40;;;;;;4982225;28;20208;-71
2023/06/24 06:12:21;;;;;;;8.30;6.70;;;26.40;57.90;;;;;;4977182;28;20191;-71
2023/06/24 06:14:46;;;;;;;8.50;7.40;;;26.50;57.50;;;;;;4984549;28;20448;-72
2023/06/24 06:17:13;;;;;;;5.60;5.00;;;26.50;57.50;;;;;;4970204;28;20196;-72
2023/06/24 06:19:41;;;;;;;7.50;5.53;;;26.60;57.40;;;;;;4975779;28;20216;-74
2023/06/24 06:22:07;;;;;;;8.40;6.00;;;26.80;57.00;;;;;;4976724;28;20564;-70
2023/06/24 06:24:32;;;;;;;7.43;6.73;;;27.10;56.40;;;;;;4996808;28;20649;-72
2023/06/24 06:26:58;;;;;;;7.20;6.53;;;27.10;55.50;;;;;;4987422;28;20412;-71
2023/06/24 06:29:24;;;;;;;7.33;6.60;;;27.20;55.00;;;;;;4983360;28;20357;-72
2023/06/24 06:31:49;;;;;;;7.80;7.10;;;27.40;54.80;;;;;;4995166;28;20482;-70
2023/06/24 06:34:17;;;;;;;10.30;9.20;;;27.50;54.80;;;;;;5000645;28;20191;-71
2023/06/24 06:36:44;;;;;;;10.20;7.30;;;27.40;54.40;;;;;;4998431;28;20627;-73
2023/06/24 06:39:09;;;;;;;7.47;6.77;;;27.30;54.60;;;;;;5000462;28;20530;-69
2023/06/24 06:41:35;;;;;;;12.30;8.70;;;27.50;54.40;;;;;;4999451;28;20443;-71
2023/06/24 06:44:00;;;;;;;7.50;6.73;;;27.50;53.70;;;;;;5001055;28;20200;-71
2023/06/24 06:46:26;;;;;;;6.90;6.30;;;27.50;54.10;;;;;;4992227;28;20234;-74
2023/06/24 06:48:51;;;;;;;7.17;6.20;;;27.30;54.00;;;;;;4974775;28;20207;-72
2023/06/24 06:51:18;;;;;;;9.70;8.70;;;27.20;54.30;;;;;;4987082;28;20176;-75
2023/06/24 06:53:44;;;;;;;9.27;7.47;;;26.80;54.10;;;;;;4972499;28;20282;-75
2023/06/24 06:56:17;;;;;;;9.03;7.50;;;26.80;54.60;;;;;;4970827;28;20491;-73
2023/06/24 06:58:43;;;;;;;8.20;7.03;;;26.70;53.90;;;;;;4968085;28;20222;-73
2023/06/24 07:01:09;;;;;;;8.13;6.77;;;26.60;54.00;;;;;;4965204;28;20439;-75
2023/06/24 07:03:34;;;;;;;8.30;7.37;;;26.50;54.30;;;;;;4954289;28;20180;-75
2023/06/24 07:06:00;;;;;;;10.13;7.30;;;26.40;54.50;;;;;;4954628;28;20176;-74
2023/06/24 07:08:25;;;;;;;11.20;8.80;;;26.30;54.90;;;;;;4989213;28;20591;-72
2023/06/24 07:10:51;;;;;;;9.90;8.50;;;26.50;54.40;;;;;;4975425;28;20200;-73
2023/06/24 07:13:17;;;;;;;15.13;7.77;;;26.40;53.80;;;;;;4992241;28;20229;-72
2023/06/24 07:15:42;;;;;;;9.33;8.30;;;26.30;53.40;;;;;;4971913;28;20200;-72
2023/06/24 07:18:08;;;;;;;8.30;6.80;;;26.10;53.00;;;;;;4987198;28;20181;-73
2023/06/24 07:20:34;;;;;;;8.10;6.70;;;26.00;53.20;;;;;;4986870;28;20201;-72
2023/06/24 07:23:00;;;;;;;8.50;6.53;;;25.90;52.90;;;;;;4990732;28;20210;-74
2023/06/24 07:25:28;;;;;;;8.37;6.80;;;25.90;52.90;;;;;;4972531;28;20210;-76
2023/06/24 07:27:53;;;;;;;8.20;6.20;;;25.90;52.60;;;;;;4989435;28;20425;-75
2023/06/24 07:30:19;;;;;;;8.10;5.90;;;25.90;52.40;;;;;;4989427;28;20762;-74
2023/06/24 07:32:45;;;;;;;8.60;7.73;;;25.80;52.70;;;;;;4974083;28;20188;-75
2023/06/24 07:35:11;;;;;;;9.83;7.77;;;25.80;52.40;;;;;;4970117;28;20246;-74
2023/06/24 07:37:36;;;;;;;8.40;7.67;;;25.60;52.80;;;;;;4988806;28;20192;-74
2023/06/24 07:40:03;;;;;;;7.80;6.77;;;25.40;53.10;;;;;;4990209;28;20267;-72
2023/06/24 07:42:29;;;;;;;8.60;6.37;;;25.50;53.40;;;;;;4991005;28;20191;-76
2023/06/24 07:44:54;;;;;;;9.90;6.53;;;25.40;53.40;;;;;;4991987;28;20455;-74
2023/06/24 07:47:20;;;;;;;9.77;6.57;;;25.40;53.50;;;;;;4991439;28;20197;-73
2023/06/24 07:49:46;;;;;;;12.40;7.60;;;25.40;53.40;;;;;;4990031;28;20196;-76
2023/06/24 07:52:11;;;;;;;13.33;7.97;;;25.20;52.90;;;;;;4989865;28;20446;-73
2023/06/24 07:54:37;;;;;;;31.03;25.40;;;25.10;53.60;;;;;;4992957;28;20196;-76
2023/06/24 07:57:03;;;;;;;9.77;5.90;;;24.90;54.10;;;;;;4995736;28;20248;-77
2023/06/24 07:59:28;;;;;;;11.30;7.77;;;24.70;54.40;;;;;;4993143;28;20214;-75
2023/06/24 08:01:54;;;;;;;7.10;6.33;;;24.70;54.60;;;;;;4993052;28;20452;-71
2023/06/24 08:04:20;;;;;;;5.40;4.90;;;24.70;54.50;;;;;;4990659;28;20238;-77
2023/06/24 08:06:45;;;;;;;5.70;5.17;;;24.70;54.60;;;;;;4993123;28;20184;-74
2023/06/24 08:09:11;;;;;;;9.37;7.43;;;24.80;54.60;;;;;;4988565;28;20224;-75
2023/06/24 08:11:37;;;;;;;7.70;6.30;;;24.80;54.50;;;;;;4991213;28;20177;-74
2023/06/24 08:14:03;;;;;;;8.80;6.50;;;24.70;55.10;;;;;;4993134;28;20240;-76
2023/06/24 08:16:29;;;;;;;10.23;5.90;;;24.80;55.00;;;;;;4993798;28;20216;-74
2023/06/24 08:18:54;;;;;;;4.70;4.30;;;24.80;54.80;;;;;;4983794;28;20408;-72
2023/06/24 08:21:20;;;;;;;11.13;7.30;;;24.90;54.80;;;;;;4985125;28;20188;-72
2023/06/24 08:23:46;;;;;;;5.63;4.87;;;25.10;54.50;;;;;;4984691;28;20298;-74
2023/06/24 08:26:11;;;;;;;8.60;7.70;;;25.10;54.50;;;;;;4969175;28;20177;-72
2023/06/24 08:28:37;;;;;;;8.47;6.00;;;25.20;54.40;;;;;;4985364;28;20447;-73
2023/06/24 08:31:02;;;;;;;6.23;5.30;;;25.20;54.50;;;;;;4986197;28;20204;-75
2023/06/24 08:33:28;;;;;;;6.73;5.80;;;25.20;54.60;;;;;;4973141;28;20184;-75
2023/06/24 08:35:54;;;;;;;17.20;8.00;;;25.30;54.50;;;;;;4990864;28;20231;-76
2023/06/24 08:38:19;;;;;;;13.03;8.63;;;25.30;54.50;;;;;;5005011;28;20177;-75
2023/06/24 08:40:46;;;;;;;12.17;8.97;;;25.20;54.80;;;;;;4989713;28;20208;-74
2023/06/24 08:43:11;;;;;;;9.50;8.47;;;25.10;55.20;;;;;;4988443;28;20310;-75
2023/06/24 08:45:37;;;;;;;7.13;5.63;;;25.00;55.50;;;;;;4992905;28;20447;-75
2023/06/24 08:48:04;;;;;;;10.30;9.20;;;25.00;55.50;;;;;;4991818;28;20176;-74
2023/06/24 08:50:37;;;;;;;9.60;8.07;;;25.00;55.20;;;;;;4989277;28;20254;-75
2023/06/24 08:53:08;;;;;;;10.77;7.43;;;24.90;56.20;;;;;;4986544;28;20802;-76
2023/06/24 08:55:39;;;;;;;10.00;7.10;;;25.10;55.40;;;;;;4970291;29;20421;-74
2023/06/24 08:58:05;;;;;;;8.20;6.80;;;25.20;55.30;;;;;;4970028;28;20436;-75
2023/06/24 09:00:31;;;;;;;11.30;6.73;;;25.30;55.20;;;;;;4988268;28;20487;-76
2023/06/24 09:02:56;;;;;;;10.37;8.57;;;25.30;55.60;;;;;;4990457;28;20179;-72
2023/06/24 09:05:22;;;;;;;7.20;6.50;;;25.30;55.30;;;;;;4974423;28;20243;-75
2023/06/24 09:07:48;;;;;;;10.20;7.70;;;25.30;55.50;;;;;;4988471;28;20176;-75
2023/06/24 09:10:52;;;;;;;7.50;6.70;;;25.30;55.30;;;;;;4988252;28;20452;-73
2023/06/24 09:13:18;;;;;;;5.50;4.50;;;25.40;55.30;;;;;;4951988;29;20194;-75
2023/06/24 09:15:45;;;;;;;4.50;4.03;;;25.50;55.20;;;;;;4936553;29;21101;-74
2023/06/24 09:18:11;;;;;;;8.27;6.60;;;25.60;55.10;;;;;;4930089;29;20533;-73
2023/06/24 09:20:44;;;;;;;9.20;6.70;;;25.60;54.60;;;;;;4948262;29;20446;-74
2023/06/24 09:23:10;;;;;;;8.40;6.57;;;25.80;54.40;;;;;;4934322;29;20611;-73
2023/06/24 09:25:36;;;;;;;6.83;6.10;;;25.80;54.20;;;;;;4934647;29;20457;-72
2023/06/24 09:28:02;;;;;;;6.90;6.20;;;26.00;54.10;;;;;;4951181;29;20261;-76
2023/06/24 09:30:28;;;;;;;11.63;7.00;;;26.00;53.70;;;;;;4947248;29;20453;-77
2023/06/24 09:32:54;;;;;;;8.90;6.37;;;26.00;53.60;;;;;;4934990;29;20418;-74
2023/06/24 09:35:24;;;;;;;6.43;5.63;;;25.90;53.70;;;;;;4947627;29;20464;-77
2023/06/24 09:37:54;;;;;;;7.30;6.13;;;25.90;53.70;;;;;;4952064;29;20446;-75
2023/06/24 09:40:21;;;;;;;6.03;5.43;;;26.00;53.20;;;;;;4947482;29;20907;-73
2023/06/24 09:42:54;;;;;;;10.53;6.50;;;26.10;53.40;;;;;;4933904;29;20432;-74
2023/06/24 09:45:29;;;;;;;5.03;4.53;;;26.20;53.20;;;;;;4953764;29;20447;-74
2023/06/24 09:47:56;;;;;;;10.07;7.43;;;26.20;53.00;;;;;;4959595;28;20452;-75
2023/06/24 09:50:22;;;;;;;7.13;6.10;;;26.30;52.40;;;;;;4988380;28;20440;-74
2023/06/24 09:52:52;;;;;;;5.67;5.17;;;26.30;52.00;;;;;;5004940;28;20412;-73
2023/06/24 09:55:18;;;;;;;8.50;5.03;;;26.30;51.70;;;;;;4989397;28;20434;-76
2023/06/24 09:57:50;;;;;;;6.33;5.37;;;26.40;51.60;;;;;;4991597;28;20408;-73
2023/06/24 10:00:18;;;;;;;5.63;5.10;;;26.40;51.70;;;;;;5005912;28;20787;-76
2023/06/24 10:02:46;;;;;;;6.00;5.40;;;26.40;51.90;;;;;;4989244;28;20471;-76
2023/06/24 10:05:13;;;;;;;5.33;4.23;;;26.50;51.40;;;;;;4989148;28;20531;-76
2023/06/24 10:07:40;;;;;;;5.70;4.90;;;26.50;50.70;;;;;;4972982;28;20427;-76
2023/06/24 10:10:06;;;;;;;7.63;5.37;;;26.50;50.30;;;;;;5004534;28;20443;-77
2023/06/24 10:12:33;;;;;;;6.93;4.50;;;26.60;48.20;;;;;;4988401;28;20423;-76
2023/06/24 10:15:00;;;;;;;4.70;4.20;;;26.40;47.10;;;;;;4971971;28;20509;-75
2023/06/24 10:17:25;;;;;;;6.43;4.73;;;26.40;47.40;;;;;;4968716;28;20555;-74
2023/06/24 10:19:54;;;;;;;5.33;4.27;;;26.50;47.10;;;;;;4987569;28;20435;-75
2023/06/24 10:22:23;;;;;;;5.50;5.00;;;26.60;48.00;;;;;;4989086;28;20463;-75
2023/06/24 10:24:51;;;;;;;6.90;5.57;;;26.70;48.00;;;;;;4990713;28;20296;-77
2023/06/24 10:27:21;;;;;;;7.13;6.00;;;26.70;48.70;;;;;;4989901;28;20431;-77
2023/06/24 10:29:52;;;;;;;6.00;5.40;;;26.70;48.60;;;;;;4972865;28;20510;-75
2023/06/24 10:32:19;;;;;;;8.00;5.97;;;26.70;48.80;;;;;;4985889;28;20431;-74
2023/06/24 10:34:47;;;;;;;6.37;5.77;;;26.70;49.10;;;;;;4988490;28;20449;-76
2023/06/24 10:37:20;;;;;;;8.30;6.10;;;26.70;49.50;;;;;;4970017;28;20445;-75
2023/06/24 10:40:00;;;;;;;6.80;5.80;;;26.70;49.80;;;;;;4971131;29;20508;-76
2023/06/24 10:42:46;;;;;;;20.93;8.10;;;26.60;49.60;;;;;;4997901;28;20427;-76
2023/06/24 10:45:35;;;;;;;8.53;5.27;;;26.50;49.20;;;;;;5001716;28;20519;-75
2023/06/24 10:48:00;;;;;;;6.43;5.83;;;26.50;48.70;;;;;;4930136;29;20585;-77
2023/06/24 10:50:26;;;;;;;8.10;4.77;;;26.60;48.50;;;;;;4925628;29;20554;-77
2023/06/24 10:52:55;;;;;;;3.77;3.47;;;26.70;47.20;;;;;;4936638;29;20190;-75
2023/06/24 10:55:22;;;;;;;4.70;4.30;;;26.80;46.10;;;;;;4922745;29;20468;-77
2023/06/24 10:57:48;;;;;;;4.67;3.73;;;26.80;45.20;;;;;;4940863;29;20433;-75
2023/06/24 11:00:15;;;;;;;5.00;4.50;;;26.90;44.00;;;;;;4940384;29;20489;-73
2023/06/24 11:02:41;;;;;;;4.90;4.03;;;27.00;44.00;;;;;;4934152;29;20201;-76
2023/06/24 11:05:07;;;;;;;5.27;4.77;;;27.00;43.60;;;;;;4949748;29;20469;-77
2023/06/24 11:07:34;;;;;;;4.43;4.03;;;27.00;42.40;;;;;;4931856;29;20327;-74
2023/06/24 11:10:15;;;;;;;4.57;3.20;;;26.90;42.20;;;;;;4947295;29;20469;-77
2023/06/24 11:12:42;;;;;;;4.20;3.80;;;26.90;41.50;;;;;;4934174;29;20425;-76
2023/06/24 11:15:10;;;;;;;4.80;3.40;;;26.90;41.90;;;;;;4923901;29;20445;-76
2023/06/24 11:17:36;;;;;;;5.50;4.50;;;26.90;42.20;;;;;;4910666;29;20436;-73
2023/06/24 11:20:07;;;;;;;4.27;3.87;;;26.90;42.20;;;;;;4940665;29;20437;-74
2023/06/24 11:22:32;;;;;;;6.13;3.90;;;26.90;42.40;;;;;;4929281;29;20421;-78
2023/06/24 11:24:58;;;;;;;10.03;5.57;;;26.80;42.60;;;;;;4976534;28;20458;-74
2023/06/24 11:27:26;;;;;;;7.33;4.90;;;26.90;42.90;;;;;;4990962;28;20183;-74
2023/06/24 11:29:53;;;;;;;4.93;4.10;;;26.90;43.90;;;;;;4988263;28;20294;-75
2023/06/24 11:32:19;;;;;;;6.70;5.00;;;26.90;44.20;;;;;;4988618;28;20396;-76
2023/06/24 11:34:44;;;;;;;7.00;4.57;;;26.90;43.50;;;;;;4984601;28;20388;-77
2023/06/24 11:37:12;;;;;;;4.80;4.30;;;26.80;43.80;;;;;;4970799;28;20263;-77
2023/06/24 11:39:37;;;;;;;5.53;4.40;;;26.80;43.80;;;;;;4963733;29;20523;-77
2023/06/24 11:42:07;;;;;;;5.00;4.50;;;26.90;43.90;;;;;;4955660;29;20417;-77
2023/06/24 11:44:33;;;;;;;5.03;4.20;;;27.00;44.30;;;;;;4974740;28;20466;-75
2023/06/24 11:47:06;;;;;;;5.10;4.60;;;27.10;44.80;;;;;;5003399;28;20736;-74
2023/06/24 11:49:31;;;;;;;4.50;4.10;;;27.20;44.30;;;;;;4987490;28;20620;-76
2023/06/24 11:51:57;;;;;;;6.13;4.87;;;27.30;44.40;;;;;;4970877;28;20431;-76
2023/06/24 11:54:23;;;;;;;5.57;5.07;;;27.40;44.70;;;;;;5004991;28;20189;-78
2023/06/24 11:56:53;;;;;;;5.83;4.77;;;27.40;44.20;;;;;;4979828;28;20241;-76
2023/06/24 11:59:25;;;;;;;5.53;5.03;;;27.50;44.40;;;;;;4990233;28;20443;-77
2023/06/24 12:01:58;;;;;;;6.10;5.50;;;27.50;44.40;;;;;;4970331;28;20719;-77
2023/06/24 12:04:30;;;;;;;6.27;5.67;;;27.50;44.20;;;;;;4987988;28;20455;-74
2023/06/24 12:06:57;;;;;;;7.17;5.40;;;27.50;44.90;;;;;;4973125;28;20408;-77
2023/06/24 12:09:22;;;;;;;6.80;5.50;;;27.60;45.00;;;;;;4996997;28;20440;-77
2023/06/24 12:11:48;;;;;;;7.20;4.30;;;27.60;44.90;;;;;;4999231;28;20431;-76
2023/06/24 12:14:14;;;;;;;5.90;4.57;;;27.60;44.40;;;;;;4997600;28;20173;-77
2023/06/24 12:16:39;;;;;;;5.80;3.87;;;27.70;44.40;;;;;;4994452;28;20200;-76
2023/06/24 12:19:06;;;;;;;5.27;4.03;;;27.80;43.70;;;;;;4989696;28;20212;-77
2023/06/24 12:21:32;;;;;;;5.67;5.13;;;27.90;43.20;;;;;;4973915;28;20177;-74
2023/06/24 12:23:58;;;;;;;4.40;4.00;;;27.90;43.30;;;;;;4988216;28;20715;-74
2023/06/24 12:26:23;;;;;;;7.23;5.00;;;28.10;43.40;;;;;;4992655;28;20416;-77
2023/06/24 12:28:49;;;;;;;5.13;4.63;;;28.10;43.00;;;;;;4975328;28;20524;-77
2023/06/24 12:31:15;;;;;;;5.90;5.10;;;28.20;43.00;;;;;;4988243;28;20199;-77
2023/06/24 12:33:41;;;;;;;6.83;6.00;;;28.30;43.10;;;;;;4972298;28;20428;-77
2023/06/24 12:36:07;;;;;;;5.50;4.90;;;28.40;42.80;;;;;;5004967;28;20216;-74
2023/06/24 12:38:32;;;;;;;6.57;4.67;;;28.40;42.80;;;;;;4990255;28;20268;-76
2023/06/24 12:40:58;;;;;;;5.20;4.70;;;28.60;42.60;;;;;;4989832;28;20197;-75
2023/06/24 12:43:24;;;;;;;5.87;5.17;;;28.60;42.50;;;;;;4988796;28;20188;-73
2023/06/24 12:45:51;;;;;;;7.53;5.80;;;28.70;42.60;;;;;;4988068;28;20216;-77